sensor_id;sensor_type;location;lat;lon;timestamp;P1;durP1;ratioP1;P2;durP2;ratioP2
63926;SDS011;50103;47.960;21.712;2022-11-02T06:04:51;39.70;;;20.80;;
63926;SDS011;50103;47.960;21.712;2022-11-02T06:07:17;44.10;;;21.10;;
63926;SDS011;50103;47.960;21.712;2022-11-02T06:09:42;47.60;;;22.40;;
63926;SDS011;50103;47.960;21.712;2022-11-02T06:12:08;42.60;;;21.00;;
63926;SDS011;50103;47.960;21.712;2022-11-02T06:14:34;49.70;;;22.30;;
63926;SDS011;50103;47.960;21.712;2022-11-02T06:16:59;48.10;;;22.70;;
63926;SDS011;50103;47.960;21.712;2022-11-02T06:19:24;50.10;;;23.50;;
63926;SDS011;50103;47.960;21.712;2022-11-02T06:21:50;47.70;;;22.30;;
63926;SDS011;50103;47.960;21.712;2022-11-02T06:24:15;44.80;;;21.40;;
63926;SDS011;50103;47.960;21.712;2022-11-02T06:26:41;48.20;;;22.00;;
63926;SDS011;50103;47.960;21.712;2022-11-02T06:29:07;48.10;;;21.60;;
63926;SDS011;50103;47.960;21.712;2022-11-02T06:31:32;43.30;;;21.30;;
63926;SDS011;50103;47.960;21.712;2022-11-02T06:33:57;48.80;;;22.00;;
63926;SDS011;50103;47.960;21.712;2022-11-02T06:36:23;47.30;;;20.00;;
63926;SDS011;50103;47.960;21.712;2022-11-02T06:38:48;44.60;;;21.80;;
63926;SDS011;50103;47.960;21.712;2022-11-02T06:41:15;45.80;;;21.20;;
63926;SDS011;50103;47.960;21.712;2022-11-02T06:43:40;45.40;;;21.30;;
63926;SDS011;50103;47.960;21.712;2022-11-02T06:48:45;46.00;;;21.80;;
63926;SDS011;50103;47.960;21.712;2022-11-02T06:51:12;45.60;;;22.00;;
63926;SDS011;50103;47.960;21.712;2022-11-02T06:53:37;50.60;;;22.30;;
63926;SDS011;50103;47.960;21.712;2022-11-02T06:56:03;49.20;;;22.90;;
63926;SDS011;50103;47.960;21.712;2022-11-02T06:58:31;52.20;;;24.80;;
63926;SDS011;50103;47.960;21.712;2022-11-02T07:00:57;51.90;;;22.30;;
63926;SDS011;50103;47.960;21.712;2022-11-02T07:03:28;48.40;;;23.90;;
63926;SDS011;50103;47.960;21.712;2022-11-02T07:05:57;52.30;;;23.80;;
63926;SDS011;50103;47.960;21.712;2022-11-02T07:08:23;52.40;;;23.10;;
63926;SDS011;50103;47.960;21.712;2022-11-02T07:10:51;49.80;;;23.20;;
63926;SDS011;50103;47.960;21.712;2022-11-02T07:13:17;52.40;;;24.60;;
63926;SDS011;50103;47.960;21.712;2022-11-02T07:15:42;51.10;;;23.90;;
63926;SDS011;50103;47.960;21.712;2022-11-02T07:18:08;51.80;;;25.00;;
63926;SDS011;50103;47.960;21.712;2022-11-02T07:20:34;52.30;;;25.10;;
63926;SDS011;50103;47.960;21.712;2022-11-02T07:23:00;54.60;;;24.50;;
63926;SDS011;50103;47.960;21.712;2022-11-02T07:25:29;55.10;;;24.60;;
63926;SDS011;50103;47.960;21.712;2022-11-02T07:27:56;51.40;;;24.20;;
63926;SDS011;50103;47.960;21.712;2022-11-02T07:30:24;54.40;;;25.60;;
63926;SDS011;50103;47.960;21.712;2022-11-02T07:32:50;48.30;;;24.80;;
63926;SDS011;50103;47.960;21.712;2022-11-02T07:35:16;52.70;;;25.40;;
63926;SDS011;50103;47.960;21.712;2022-11-02T07:37:42;55.70;;;25.20;;
63926;SDS011;50103;47.960;21.712;2022-11-02T07:40:09;48.60;;;24.10;;
63926;SDS011;50103;47.960;21.712;2022-11-02T07:42:42;51.80;;;25.00;;
63926;SDS011;50103;47.960;21.712;2022-11-02T07:45:09;51.90;;;25.10;;
63926;SDS011;50103;47.960;21.712;2022-11-02T07:47:44;49.10;;;24.90;;
63926;SDS011;50103;47.960;21.712;2022-11-02T07:50:14;52.90;;;25.50;;
63926;SDS011;50103;47.960;21.712;2022-11-02T07:52:49;52.50;;;24.90;;
63926;SDS011;50103;47.960;21.712;2022-11-02T07:55:25;54.60;;;25.80;;
63926;SDS011;50103;47.960;21.712;2022-11-02T07:57:53;52.80;;;25.40;;
63926;SDS011;50103;47.960;21.712;2022-11-02T08:00:23;55.30;;;26.00;;
63926;SDS011;50103;47.960;21.712;2022-11-02T08:02:54;58.30;;;27.60;;
63926;SDS011;50103;47.960;21.712;2022-11-02T08:05:22;54.70;;;27.80;;
63926;SDS011;50103;47.960;21.712;2022-11-02T08:08:02;58.80;;;27.90;;
63926;SDS011;50103;47.960;21.712;2022-11-02T08:10:31;55.50;;;25.90;;
63926;SDS011;50103;47.960;21.712;2022-11-02T08:12:58;54.40;;;25.90;;
63926;SDS011;50103;47.960;21.712;2022-11-02T08:15:24;53.00;;;26.50;;
63926;SDS011;50103;47.960;21.712;2022-11-02T08:18:00;54.40;;;26.00;;
63926;SDS011;50103;47.960;21.712;2022-11-02T08:20:27;57.60;;;27.30;;
63926;SDS011;50103;47.960;21.712;2022-11-02T08:22:53;51.40;;;25.80;;
63926;SDS011;50103;47.960;21.712;2022-11-02T08:25:19;54.20;;;26.80;;
63926;SDS011;50103;47.960;21.712;2022-11-02T08:27:45;50.70;;;25.50;;
63926;SDS011;50103;47.960;21.712;2022-11-02T08:30:32;48.90;;;24.30;;
63926;SDS011;50103;47.960;21.712;2022-11-02T08:33:04;49.10;;;25.20;;
63926;SDS011;50103;47.960;21.712;2022-11-02T08:35:31;50.40;;;24.90;;
63926;SDS011;50103;47.960;21.712;2022-11-02T08:37:57;50.40;;;26.60;;
63926;SDS011;50103;47.960;21.712;2022-11-02T08:40:24;49.80;;;24.90;;
63926;SDS011;50103;47.960;21.712;2022-11-02T08:42:57;51.50;;;25.80;;
63926;SDS011;50103;47.960;21.712;2022-11-02T08:45:25;51.50;;;26.20;;
63926;SDS011;50103;47.960;21.712;2022-11-02T08:47:51;50.20;;;26.50;;
63926;SDS011;50103;47.960;21.712;2022-11-02T08:50:17;49.40;;;24.70;;
63926;SDS011;50103;47.960;21.712;2022-11-02T08:52:43;54.40;;;26.50;;
63926;SDS011;50103;47.960;21.712;2022-11-02T08:55:18;51.40;;;25.40;;
63926;SDS011;50103;47.960;21.712;2022-11-02T09:00:15;49.60;;;25.30;;
63926;SDS011;50103;47.960;21.712;2022-11-02T09:02:42;52.20;;;25.80;;
63926;SDS011;50103;47.960;21.712;2022-11-02T09:05:08;54.80;;;28.10;;
63926;SDS011;50103;47.960;21.712;2022-11-02T09:07:34;50.60;;;26.00;;
63926;SDS011;50103;47.960;21.712;2022-11-02T09:10:00;54.80;;;26.70;;
63926;SDS011;50103;47.960;21.712;2022-11-02T09:12:26;50.90;;;27.70;;
63926;SDS011;50103;47.960;21.712;2022-11-02T09:14:51;51.00;;;27.50;;
63926;SDS011;50103;47.960;21.712;2022-11-02T09:17:19;51.60;;;27.10;;
63926;SDS011;50103;47.960;21.712;2022-11-02T09:19:44;51.10;;;26.00;;
63926;SDS011;50103;47.960;21.712;2022-11-02T09:22:10;54.20;;;27.00;;
63926;SDS011;50103;47.960;21.712;2022-11-02T09:24:38;54.90;;;27.60;;
63926;SDS011;50103;47.960;21.712;2022-11-02T09:27:07;55.80;;;27.40;;
63926;SDS011;50103;47.960;21.712;2022-11-02T09:29:32;53.60;;;27.30;;
63926;SDS011;50103;47.960;21.712;2022-11-02T09:31:58;54.90;;;27.10;;
63926;SDS011;50103;47.960;21.712;2022-11-02T09:34:23;51.50;;;27.00;;
63926;SDS011;50103;47.960;21.712;2022-11-02T09:36:49;53.90;;;28.20;;
63926;SDS011;50103;47.960;21.712;2022-11-02T09:39:14;53.10;;;27.20;;
63926;SDS011;50103;47.960;21.712;2022-11-02T09:41:46;50.30;;;26.60;;
63926;SDS011;50103;47.960;21.712;2022-11-02T09:44:22;50.20;;;25.70;;
63926;SDS011;50103;47.960;21.712;2022-11-02T09:47:02;53.60;;;26.00;;
63926;SDS011;50103;47.960;21.712;2022-11-02T09:49:31;52.30;;;27.80;;
63926;SDS011;50103;47.960;21.712;2022-11-02T09:51:59;56.60;;;28.10;;
63926;SDS011;50103;47.960;21.712;2022-11-02T09:54:35;54.80;;;28.20;;
63926;SDS011;50103;47.960;21.712;2022-11-02T09:57:32;50.70;;;27.90;;
63926;SDS011;50103;47.960;21.712;2022-11-02T09:59:58;51.20;;;27.60;;
63926;SDS011;50103;47.960;21.712;2022-11-02T10:05:07;54.70;;;27.50;;
63926;SDS011;50103;47.960;21.712;2022-11-02T10:07:55;51.90;;;27.30;;
63926;SDS011;50103;47.960;21.712;2022-11-02T10:13:07;54.40;;;27.90;;
63926;SDS011;50103;47.960;21.712;2022-11-02T10:15:44;58.70;;;28.80;;
63926;SDS011;50103;47.960;21.712;2022-11-02T10:18:32;50.40;;;25.70;;
63926;SDS011;50103;47.960;21.712;2022-11-02T10:21:03;51.30;;;25.90;;
63926;SDS011;50103;47.960;21.712;2022-11-02T10:23:33;47.50;;;25.50;;
63926;SDS011;50103;47.960;21.712;2022-11-02T10:28:35;52.10;;;25.60;;
63926;SDS011;50103;47.960;21.712;2022-11-02T10:31:07;51.50;;;25.50;;
63926;SDS011;50103;47.960;21.712;2022-11-02T10:33:45;54.10;;;26.30;;
63926;SDS011;50103;47.960;21.712;2022-11-02T10:39:16;51.10;;;26.00;;
63926;SDS011;50103;47.960;21.712;2022-11-02T10:42:02;49.00;;;26.20;;
63926;SDS011;50103;47.960;21.712;2022-11-02T10:45:03;49.40;;;26.30;;
63926;SDS011;50103;47.960;21.712;2022-11-02T10:47:52;50.80;;;26.60;;
63926;SDS011;50103;47.960;21.712;2022-11-02T10:53:11;54.50;;;27.60;;
63926;SDS011;50103;47.960;21.712;2022-11-02T10:58:14;51.50;;;25.30;;
63926;SDS011;50103;47.960;21.712;2022-11-02T11:00:44;50.90;;;26.50;;
63926;SDS011;50103;47.960;21.712;2022-11-02T11:03:13;51.10;;;25.80;;
63926;SDS011;50103;47.960;21.712;2022-11-02T11:11:23;47.50;;;24.30;;
63926;SDS011;50103;47.960;21.712;2022-11-02T11:16:36;49.30;;;25.80;;
63926;SDS011;50103;47.960;21.712;2022-11-02T11:21:42;50.30;;;26.20;;
63926;SDS011;50103;47.960;21.712;2022-11-02T11:24:19;47.40;;;25.20;;
63926;SDS011;50103;47.960;21.712;2022-11-02T11:27:42;46.80;;;24.70;;
63926;SDS011;50103;47.960;21.712;2022-11-02T11:29:52;50.10;;;23.60;;
63926;SDS011;50103;47.960;21.712;2022-11-02T11:32:21;47.20;;;23.80;;
63926;SDS011;50103;47.960;21.712;2022-11-02T11:34:53;48.10;;;25.30;;
63926;SDS011;50103;47.960;21.712;2022-11-02T11:37:19;49.20;;;25.50;;
63926;SDS011;50103;47.960;21.712;2022-11-02T11:39:49;44.50;;;23.60;;
63926;SDS011;50103;47.960;21.712;2022-11-02T11:42:20;44.60;;;23.40;;
63926;SDS011;50103;47.960;21.712;2022-11-02T11:45:22;48.10;;;23.70;;
63926;SDS011;50103;47.960;21.712;2022-11-02T11:50:34;45.90;;;23.90;;
63926;SDS011;50103;47.960;21.712;2022-11-02T11:53:15;43.70;;;23.40;;
63926;SDS011;50103;47.960;21.712;2022-11-02T11:55:58;38.60;;;21.10;;
63926;SDS011;50103;47.960;21.712;2022-11-02T11:58:31;43.60;;;22.20;;
63926;SDS011;50103;47.960;21.712;2022-11-02T12:03:55;39.50;;;20.60;;
63926;SDS011;50103;47.960;21.712;2022-11-02T12:14:36;44.80;;;20.30;;
63926;SDS011;50103;47.960;21.712;2022-11-02T12:17:34;39.50;;;19.10;;
63926;SDS011;50103;47.960;21.712;2022-11-02T12:26:12;41.00;;;20.00;;
63926;SDS011;50103;47.960;21.712;2022-11-02T12:28:42;42.70;;;20.50;;
63926;SDS011;50103;47.960;21.712;2022-11-02T12:33:59;40.00;;;18.90;;
63926;SDS011;50103;47.960;21.712;2022-11-02T12:42:26;40.60;;;20.00;;
63926;SDS011;50103;47.960;21.712;2022-11-02T12:50:28;35.40;;;18.10;;
63926;SDS011;50103;47.960;21.712;2022-11-02T12:56:09;36.30;;;17.20;;
63926;SDS011;50103;47.960;21.712;2022-11-02T12:58:40;36.60;;;18.40;;
63926;SDS011;50103;47.960;21.712;2022-11-02T13:06:53;38.10;;;17.60;;
63926;SDS011;50103;47.960;21.712;2022-11-02T13:09:27;36.40;;;17.30;;
63926;SDS011;50103;47.960;21.712;2022-11-02T13:12:06;36.10;;;17.60;;
63926;SDS011;50103;47.960;21.712;2022-11-02T13:14:43;35.30;;;17.90;;
63926;SDS011;50103;47.960;21.712;2022-11-02T13:19:55;35.10;;;17.10;;
63926;SDS011;50103;47.960;21.712;2022-11-02T13:22:27;36.70;;;16.40;;
63926;SDS011;50103;47.960;21.712;2022-11-02T13:25:01;35.20;;;17.50;;
63926;SDS011;50103;47.960;21.712;2022-11-02T13:27:39;36.60;;;17.00;;
63926;SDS011;50103;47.960;21.712;2022-11-02T13:30:22;37.80;;;17.60;;
63926;SDS011;50103;47.960;21.712;2022-11-02T13:32:49;38.50;;;18.40;;
63926;SDS011;50103;47.960;21.712;2022-11-02T13:40:53;40.70;;;19.00;;
63926;SDS011;50103;47.960;21.712;2022-11-02T13:43:35;37.20;;;18.10;;
63926;SDS011;50103;47.960;21.712;2022-11-02T13:49:05;37.90;;;19.40;;
63926;SDS011;50103;47.960;21.712;2022-11-02T13:51:43;37.20;;;18.50;;
63926;SDS011;50103;47.960;21.712;2022-11-02T13:54:17;43.80;;;19.90;;
63926;SDS011;50103;47.960;21.712;2022-11-02T13:56:50;39.00;;;18.80;;
63926;SDS011;50103;47.960;21.712;2022-11-02T13:59:28;36.80;;;18.70;;
63926;SDS011;50103;47.960;21.712;2022-11-02T14:01:58;40.60;;;20.20;;
63926;SDS011;50103;47.960;21.712;2022-11-02T14:04:26;36.80;;;18.50;;
63926;SDS011;50103;47.960;21.712;2022-11-02T14:10:00;42.50;;;18.70;;
63926;SDS011;50103;47.960;21.712;2022-11-02T14:12:40;39.40;;;20.20;;
63926;SDS011;50103;47.960;21.712;2022-11-02T14:20:34;37.70;;;17.60;;
63926;SDS011;50103;47.960;21.712;2022-11-02T14:25:54;38.10;;;18.30;;
63926;SDS011;50103;47.960;21.712;2022-11-02T14:28:40;40.70;;;19.80;;
63926;SDS011;50103;47.960;21.712;2022-11-02T14:37:24;39.70;;;19.40;;
63926;SDS011;50103;47.960;21.712;2022-11-02T14:42:45;39.50;;;21.10;;
63926;SDS011;50103;47.960;21.712;2022-11-02T14:48:41;40.30;;;19.20;;
63926;SDS011;50103;47.960;21.712;2022-11-02T14:53:53;35.40;;;17.40;;
63926;SDS011;50103;47.960;21.712;2022-11-02T14:56:46;37.30;;;19.30;;
63926;SDS011;50103;47.960;21.712;2022-11-02T14:59:21;41.90;;;19.50;;
63926;SDS011;50103;47.960;21.712;2022-11-02T15:01:54;42.70;;;20.90;;
63926;SDS011;50103;47.960;21.712;2022-11-02T15:04:22;45.60;;;22.70;;
63926;SDS011;50103;47.960;21.712;2022-11-02T15:06:51;40.50;;;19.80;;
63926;SDS011;50103;47.960;21.712;2022-11-02T15:17:54;44.10;;;23.20;;
63926;SDS011;50103;47.960;21.712;2022-11-02T15:20:31;43.60;;;22.10;;
63926;SDS011;50103;47.960;21.712;2022-11-02T15:25:35;43.20;;;22.60;;
63926;SDS011;50103;47.960;21.712;2022-11-02T15:28:10;46.60;;;23.60;;
63926;SDS011;50103;47.960;21.712;2022-11-02T15:30:58;47.00;;;23.00;;
63926;SDS011;50103;47.960;21.712;2022-11-02T15:33:39;43.50;;;21.60;;
63926;SDS011;50103;47.960;21.712;2022-11-02T15:36:12;43.70;;;22.00;;
63926;SDS011;50103;47.960;21.712;2022-11-02T15:38:45;46.90;;;24.10;;
63926;SDS011;50103;47.960;21.712;2022-11-02T15:44:29;50.70;;;27.60;;
63926;SDS011;50103;47.960;21.712;2022-11-02T16:04:57;48.30;;;24.00;;
63926;SDS011;50103;47.960;21.712;2022-11-02T16:07:25;47.70;;;23.30;;
63926;SDS011;50103;47.960;21.712;2022-11-02T16:09:53;49.10;;;24.60;;
63926;SDS011;50103;47.960;21.712;2022-11-02T16:12:19;99.30;;;61.10;;
63926;SDS011;50103;47.960;21.712;2022-11-02T16:15:20;100.10;;;63.20;;
63926;SDS011;50103;47.960;21.712;2022-11-02T16:17:41;92.80;;;63.60;;
63926;SDS011;50103;47.960;21.712;2022-11-02T16:22:47;80.60;;;49.20;;
63926;SDS011;50103;47.960;21.712;2022-11-02T16:25:24;137.90;;;89.80;;
63926;SDS011;50103;47.960;21.712;2022-11-02T16:27:52;92.90;;;57.50;;
63926;SDS011;50103;47.960;21.712;2022-11-02T16:30:19;82.60;;;48.90;;
63926;SDS011;50103;47.960;21.712;2022-11-02T16:32:46;63.60;;;37.70;;
63926;SDS011;50103;47.960;21.712;2022-11-02T16:35:17;59.00;;;32.50;;
63926;SDS011;50103;47.960;21.712;2022-11-02T16:37:46;55.00;;;32.50;;
63926;SDS011;50103;47.960;21.712;2022-11-02T16:40:17;55.40;;;33.80;;
63926;SDS011;50103;47.960;21.712;2022-11-02T16:42:48;63.70;;;41.40;;
63926;SDS011;50103;47.960;21.712;2022-11-02T16:45:35;58.50;;;35.60;;
63926;SDS011;50103;47.960;21.712;2022-11-02T16:48:14;55.10;;;31.00;;
63926;SDS011;50103;47.960;21.712;2022-11-02T16:50:40;50.40;;;28.00;;
63926;SDS011;50103;47.960;21.712;2022-11-02T16:53:25;56.00;;;28.50;;
63926;SDS011;50103;47.960;21.712;2022-11-02T16:55:55;52.70;;;29.80;;
63926;SDS011;50103;47.960;21.712;2022-11-02T16:58:26;55.20;;;29.70;;
63926;SDS011;50103;47.960;21.712;2022-11-02T17:00:56;53.20;;;31.10;;
63926;SDS011;50103;47.960;21.712;2022-11-02T17:03:30;53.70;;;31.90;;
63926;SDS011;50103;47.960;21.712;2022-11-02T17:05:58;53.00;;;32.10;;
63926;SDS011;50103;47.960;21.712;2022-11-02T17:08:33;54.20;;;34.90;;
63926;SDS011;50103;47.960;21.712;2022-11-02T17:11:02;53.50;;;31.40;;
63926;SDS011;50103;47.960;21.712;2022-11-02T17:13:30;56.10;;;30.90;;
63926;SDS011;50103;47.960;21.712;2022-11-02T17:16:07;48.40;;;27.30;;
63926;SDS011;50103;47.960;21.712;2022-11-02T17:18:34;53.70;;;29.40;;
63926;SDS011;50103;47.960;21.712;2022-11-02T17:21:14;59.10;;;32.60;;
63926;SDS011;50103;47.960;21.712;2022-11-02T17:23:46;52.60;;;30.50;;
63926;SDS011;50103;47.960;21.712;2022-11-02T17:31:17;57.80;;;31.50;;
63926;SDS011;50103;47.960;21.712;2022-11-02T17:33:48;48.80;;;27.00;;
63926;SDS011;50103;47.960;21.712;2022-11-02T17:36:14;60.50;;;33.90;;
63926;SDS011;50103;47.960;21.712;2022-11-02T17:38:40;56.30;;;32.90;;
63926;SDS011;50103;47.960;21.712;2022-11-02T17:41:09;55.40;;;32.20;;
63926;SDS011;50103;47.960;21.712;2022-11-02T17:43:55;58.80;;;33.00;;
63926;SDS011;50103;47.960;21.712;2022-11-02T17:46:23;59.00;;;34.20;;
63926;SDS011;50103;47.960;21.712;2022-11-02T17:48:48;55.60;;;33.70;;
63926;SDS011;50103;47.960;21.712;2022-11-02T17:51:14;59.80;;;32.70;;
63926;SDS011;50103;47.960;21.712;2022-11-02T17:53:41;59.80;;;33.30;;
63926;SDS011;50103;47.960;21.712;2022-11-02T17:56:08;59.10;;;34.50;;
63926;SDS011;50103;47.960;21.712;2022-11-02T17:58:35;58.70;;;34.90;;
63926;SDS011;50103;47.960;21.712;2022-11-02T18:01:00;61.00;;;36.90;;
63926;SDS011;50103;47.960;21.712;2022-11-02T18:03:28;64.60;;;36.30;;
63926;SDS011;50103;47.960;21.712;2022-11-02T18:05:55;64.90;;;36.80;;
63926;SDS011;50103;47.960;21.712;2022-11-02T18:08:20;68.70;;;39.70;;
63926;SDS011;50103;47.960;21.712;2022-11-02T18:10:49;65.90;;;40.20;;
63926;SDS011;50103;47.960;21.712;2022-11-02T18:13:17;64.70;;;38.50;;
63926;SDS011;50103;47.960;21.712;2022-11-02T18:15:44;67.60;;;40.40;;
63926;SDS011;50103;47.960;21.712;2022-11-02T18:18:11;67.90;;;40.10;;
63926;SDS011;50103;47.960;21.712;2022-11-02T18:20:37;74.00;;;42.10;;
63926;SDS011;50103;47.960;21.712;2022-11-02T18:23:04;70.40;;;40.00;;
63926;SDS011;50103;47.960;21.712;2022-11-02T18:25:29;67.40;;;41.50;;
63926;SDS011;50103;47.960;21.712;2022-11-02T18:28:00;71.80;;;42.20;;
63926;SDS011;50103;47.960;21.712;2022-11-02T18:30:26;68.20;;;40.30;;
63926;SDS011;50103;47.960;21.712;2022-11-02T18:32:54;68.50;;;42.20;;
63926;SDS011;50103;47.960;21.712;2022-11-02T18:35:21;72.70;;;45.30;;
63926;SDS011;50103;47.960;21.712;2022-11-02T18:37:48;74.60;;;45.40;;
63926;SDS011;50103;47.960;21.712;2022-11-02T18:40:15;83.30;;;46.20;;
63926;SDS011;50103;47.960;21.712;2022-11-02T18:42:42;74.10;;;45.60;;
63926;SDS011;50103;47.960;21.712;2022-11-02T18:45:09;72.00;;;45.30;;
63926;SDS011;50103;47.960;21.712;2022-11-02T18:47:36;73.80;;;44.10;;
63926;SDS011;50103;47.960;21.712;2022-11-02T18:50:04;69.30;;;43.10;;
63926;SDS011;50103;47.960;21.712;2022-11-02T18:52:30;72.90;;;44.10;;
63926;SDS011;50103;47.960;21.712;2022-11-02T18:54:57;69.80;;;42.00;;
63926;SDS011;50103;47.960;21.712;2022-11-02T18:57:27;72.20;;;43.10;;
63926;SDS011;50103;47.960;21.712;2022-11-02T18:59:52;69.20;;;42.10;;
63926;SDS011;50103;47.960;21.712;2022-11-02T19:02:18;69.90;;;42.50;;
63926;SDS011;50103;47.960;21.712;2022-11-02T19:04:43;70.90;;;41.90;;
63926;SDS011;50103;47.960;21.712;2022-11-02T19:07:09;70.80;;;39.80;;
63926;SDS011;50103;47.960;21.712;2022-11-02T19:09:54;70.80;;;41.20;;
63926;SDS011;50103;47.960;21.712;2022-11-02T19:12:23;70.50;;;41.50;;
63926;SDS011;50103;47.960;21.712;2022-11-02T19:14:52;69.80;;;41.50;;
63926;SDS011;50103;47.960;21.712;2022-11-02T19:17:18;69.80;;;39.40;;
63926;SDS011;50103;47.960;21.712;2022-11-02T19:19:46;69.00;;;36.80;;
63926;SDS011;50103;47.960;21.712;2022-11-02T19:22:13;68.60;;;39.70;;
63926;SDS011;50103;47.960;21.712;2022-11-02T19:24:40;68.00;;;39.00;;
63926;SDS011;50103;47.960;21.712;2022-11-02T19:27:05;67.70;;;38.90;;
63926;SDS011;50103;47.960;21.712;2022-11-02T19:29:32;66.80;;;38.60;;
63926;SDS011;50103;47.960;21.712;2022-11-02T19:31:58;66.80;;;37.80;;
63926;SDS011;50103;47.960;21.712;2022-11-02T19:34:24;66.00;;;36.10;;
63926;SDS011;50103;47.960;21.712;2022-11-02T19:36:49;66.00;;;38.80;;
63926;SDS011;50103;47.960;21.712;2022-11-02T19:39:15;63.20;;;35.10;;
63926;SDS011;50103;47.960;21.712;2022-11-02T19:41:40;67.30;;;39.10;;
63926;SDS011;50103;47.960;21.712;2022-11-02T19:44:06;67.10;;;38.80;;
63926;SDS011;50103;47.960;21.712;2022-11-02T19:46:32;66.00;;;37.50;;
63926;SDS011;50103;47.960;21.712;2022-11-02T19:48:58;71.40;;;41.90;;
63926;SDS011;50103;47.960;21.712;2022-11-02T19:51:29;69.80;;;41.60;;
63926;SDS011;50103;47.960;21.712;2022-11-02T19:53:57;70.40;;;41.10;;
63926;SDS011;50103;47.960;21.712;2022-11-02T19:56:24;69.70;;;40.70;;
63926;SDS011;50103;47.960;21.712;2022-11-02T19:58:51;70.50;;;40.20;;
